createdAt,value
2017-10-13T00:00:35.805Z,29.50
2017-10-13T00:03:04.336Z,29.50
2017-10-13T00:05:33.184Z,29.50
2017-10-13T00:08:02.612Z,29.40
2017-10-13T00:10:31.373Z,29.40
2017-10-13T00:12:59.558Z,29.30
2017-10-13T00:15:28.331Z,29.40
2017-10-13T00:17:57.666Z,29.40
2017-10-13T00:20:26.527Z,29.40
2017-10-13T00:22:56.636Z,29.40
2017-10-13T00:25:25.299Z,29.40
2017-10-13T00:27:53.531Z,29.40
2017-10-13T00:30:22.375Z,29.40
2017-10-13T00:32:51.232Z,29.40
2017-10-13T00:35:20.150Z,29.40
2017-10-13T00:37:48.600Z,29.30
2017-10-13T00:40:18.138Z,29.40
2017-10-13T00:42:46.311Z,29.40
2017-10-13T00:45:14.383Z,29.40
2017-10-13T00:47:43.003Z,29.40
2017-10-13T00:50:11.838Z,29.40
2017-10-13T00:52:40.380Z,29.40
2017-10-13T00:55:09.227Z,29.30
2017-10-13T00:57:37.688Z,29.30
2017-10-13T01:00:05.712Z,29.30
2017-10-13T01:02:34.140Z,29.30
2017-10-13T01:05:02.992Z,29.30
2017-10-13T01:07:31.735Z,29.20
2017-10-13T01:10:00.624Z,29.20
2017-10-13T01:12:29.264Z,29.20
2017-10-13T01:14:57.323Z,29.10
2017-10-13T01:17:26.219Z,29.20
2017-10-13T01:19:55.086Z,29.10
2017-10-13T01:22:23.595Z,29.10
2017-10-13T01:24:51.704Z,29.00
2017-10-13T01:27:21.339Z,29.00
2017-10-13T01:29:49.532Z,29.00
2017-10-13T01:32:18.096Z,29.10
2017-10-13T01:34:46.976Z,29.10
2017-10-13T01:37:15.643Z,29.10
2017-10-13T01:39:44.907Z,29.00
2017-10-13T01:42:13.823Z,29.00
2017-10-13T01:44:42.463Z,29.00
2017-10-13T01:47:10.575Z,28.90
2017-10-13T01:49:39.316Z,28.90
2017-10-13T01:52:08.041Z,28.90
2017-10-13T01:54:36.135Z,28.80
2017-10-13T01:57:04.851Z,28.80
2017-10-13T01:59:33.581Z,28.80
2017-10-13T02:02:01.596Z,28.80
2017-10-13T02:04:30.963Z,28.80
2017-10-13T02:06:59.499Z,28.80
2017-10-13T02:09:28.847Z,28.80
2017-10-13T02:11:58.005Z,28.80
2017-10-13T02:14:26.076Z,28.70
2017-10-13T02:16:54.084Z,28.70
2017-10-13T02:19:22.815Z,28.70
2017-10-13T02:21:51.588Z,28.70
2017-10-13T02:24:21.639Z,28.70
2017-10-13T02:26:51.831Z,28.70
2017-10-13T02:29:19.819Z,28.70
2017-10-13T02:31:48.696Z,28.60
2017-10-13T02:34:17.420Z,28.50
2017-10-13T02:36:46.519Z,28.60
2017-10-13T02:39:15.167Z,28.50
2017-10-13T02:41:44.001Z,28.50
2017-10-13T02:44:12.808Z,28.50
2017-10-13T02:46:41.740Z,28.70
2017-10-13T02:49:09.906Z,28.70
2017-10-13T02:51:38.060Z,28.50
2017-10-13T02:54:06.708Z,28.60
2017-10-13T02:56:36.082Z,28.50
2017-10-13T02:59:04.639Z,28.50
2017-10-13T03:01:32.731Z,28.50
2017-10-13T03:04:00.899Z,28.60
2017-10-13T03:06:29.451Z,28.60
2017-10-13T03:08:58.358Z,28.70
2017-10-13T03:11:26.928Z,28.70
2017-10-13T03:13:55.492Z,28.90
2017-10-13T03:16:24.980Z,29.00
2017-10-13T03:18:53.839Z,29.20
2017-10-13T03:21:21.902Z,29.10
2017-10-13T03:23:50.451Z,29.30
2017-10-13T03:26:19.095Z,29.30
2017-10-13T03:28:47.828Z,29.40
2017-10-13T03:31:15.796Z,29.50
2017-10-13T03:33:43.928Z,29.60
2017-10-13T03:36:11.936Z,29.80
2017-10-13T03:38:40.849Z,30.00
2017-10-13T03:41:09.724Z,30.00
2017-10-13T03:43:38.200Z,30.00
2017-10-13T03:46:07.200Z,30.30
2017-10-13T03:48:35.455Z,30.30
2017-10-13T03:51:04.736Z,30.60
2017-10-13T03:53:33.588Z,30.50
2017-10-13T03:56:01.830Z,30.70
2017-10-13T03:58:31.277Z,32.30
2017-10-13T04:00:59.475Z,32.30
2017-10-13T04:03:27.619Z,33.20
2017-10-13T04:05:55.719Z,33.10
2017-10-13T04:08:24.483Z,32.70
2017-10-13T04:10:52.663Z,32.20
2017-10-13T04:13:21.516Z,31.90
2017-10-13T04:15:50.303Z,31.80
2017-10-13T04:18:19.168Z,31.70
2017-10-13T04:20:47.295Z,31.70
2017-10-13T04:23:15.916Z,31.80
2017-10-13T04:25:44.764Z,31.80
2017-10-13T04:28:13.255Z,32.00
2017-10-13T04:30:41.315Z,32.20
2017-10-13T04:33:10.176Z,32.30
2017-10-13T04:35:38.190Z,32.30
2017-10-13T04:38:06.216Z,32.50
2017-10-13T04:40:35.292Z,32.60
2017-10-13T04:43:03.939Z,32.80
2017-10-13T04:45:32.735Z,32.90
2017-10-13T04:48:00.867Z,33.00
2017-10-13T04:50:28.872Z,33.30
2017-10-13T04:52:57.694Z,33.50
2017-10-13T04:55:25.937Z,33.80
2017-10-13T04:57:53.908Z,34.70
2017-10-13T05:00:21.981Z,36.00
2017-10-13T05:02:50.271Z,36.60
2017-10-13T05:05:21.828Z,36.60
2017-10-13T05:07:50.380Z,36.10
2017-10-13T05:10:19.784Z,36.10
2017-10-13T05:12:49.120Z,35.80
2017-10-13T05:15:17.871Z,35.80
2017-10-13T05:17:46.630Z,35.70
2017-10-13T05:20:14.784Z,35.70
2017-10-13T05:22:42.880Z,35.80
2017-10-13T05:25:10.911Z,35.50
2017-10-13T05:27:39.976Z,35.50
2017-10-13T05:30:08.931Z,35.40
2017-10-13T05:32:37.052Z,35.40
2017-10-13T05:35:05.231Z,35.60
2017-10-13T05:37:34.191Z,35.30
2017-10-13T05:40:02.209Z,35.20
2017-10-13T05:42:30.632Z,35.30
2017-10-13T05:44:58.874Z,35.60
2017-10-13T05:47:27.568Z,35.50
2017-10-13T05:49:55.560Z,35.80
2017-10-13T05:52:23.768Z,36.20
2017-10-13T05:54:52.980Z,36.40
2017-10-13T05:57:22.260Z,36.50
2017-10-13T05:59:51.000Z,36.50
2017-10-13T06:02:19.927Z,36.50
2017-10-13T06:04:48.035Z,36.50
2017-10-13T06:07:17.095Z,38.10
2017-10-13T06:09:45.323Z,38.10
2017-10-13T06:12:14.700Z,40.50
2017-10-13T06:14:43.523Z,40.50
2017-10-13T06:17:11.896Z,42.10
2017-10-13T06:19:40.691Z,41.90
2017-10-13T06:22:08.831Z,41.90
2017-10-13T06:24:37.011Z,41.20
2017-10-13T06:27:05.527Z,40.80
2017-10-13T06:29:33.678Z,40.30
2017-10-13T06:32:02.952Z,39.30
2017-10-13T06:34:30.972Z,39.40
2017-10-13T06:36:59.270Z,38.80
2017-10-13T06:39:28.011Z,38.60
2017-10-13T06:41:57.296Z,38.50
2017-10-13T06:44:26.231Z,38.50
2017-10-13T06:46:54.891Z,38.60
2017-10-13T06:49:24.208Z,38.20
2017-10-13T06:51:53.118Z,38.40
2017-10-13T06:54:21.192Z,38.50
2017-10-13T06:56:49.872Z,38.60
2017-10-13T06:59:18.684Z,38.10
2017-10-13T07:01:46.847Z,38.20
2017-10-13T07:04:14.867Z,38.30
2017-10-13T07:06:43.018Z,38.30
2017-10-13T07:09:11.095Z,38.20
2017-10-13T07:11:39.743Z,38.30
2017-10-13T07:14:09.167Z,37.90
2017-10-13T07:16:37.696Z,37.90
2017-10-13T07:19:06.435Z,38.00
2017-10-13T07:21:34.664Z,38.40
2017-10-13T07:24:06.624Z,38.70
2017-10-13T07:26:34.871Z,39.30
2017-10-13T07:29:02.941Z,40.20
2017-10-13T07:31:31.478Z,40.50
2017-10-13T07:34:00.351Z,42.10
2017-10-13T07:36:28.867Z,42.10
2017-10-13T07:38:56.931Z,40.80
2017-10-13T07:41:25.799Z,39.80
2017-10-13T07:43:55.080Z,39.20
2017-10-13T07:46:23.850Z,39.10
2017-10-13T07:48:52.595Z,39.00
2017-10-13T07:51:22.187Z,38.90
2017-10-13T07:53:50.301Z,38.90
2017-10-13T07:56:18.483Z,38.60
2017-10-13T07:58:46.544Z,38.60
2017-10-13T08:01:15.136Z,38.50
2017-10-13T08:03:43.808Z,38.40
2017-10-13T08:06:13.055Z,38.30
2017-10-13T08:08:41.108Z,38.30
2017-10-13T08:11:09.280Z,38.10
2017-10-13T08:13:38.063Z,38.30
2017-10-13T08:16:06.084Z,38.20
2017-10-13T08:18:34.920Z,38.50
2017-10-13T08:21:03.501Z,38.30
2017-10-13T08:23:31.549Z,38.20
2017-10-13T08:26:00.627Z,38.10
2017-10-13T08:28:29.116Z,38.10
2017-10-13T08:30:57.807Z,37.90
2017-10-13T08:33:25.995Z,37.80
2017-10-13T08:35:54.847Z,37.80
2017-10-13T08:38:22.923Z,37.80
2017-10-13T08:40:51.059Z,38.00
2017-10-13T08:43:19.845Z,37.90
2017-10-13T08:45:47.910Z,37.50
2017-10-13T08:48:17.275Z,37.60
2017-10-13T08:50:46.003Z,37.60
2017-10-13T08:53:14.711Z,37.70
2017-10-13T08:55:42.971Z,37.70
2017-10-13T08:58:11.187Z,37.60
2017-10-13T09:00:39.219Z,37.60
2017-10-13T09:03:08.084Z,37.60
2017-10-13T09:05:38.448Z,37.60
2017-10-13T09:08:06.707Z,37.60
2017-10-13T09:10:35.119Z,37.70
2017-10-13T09:13:03.288Z,37.50
2017-10-13T09:15:31.760Z,37.40
2017-10-13T09:18:00.452Z,37.50
2017-10-13T09:20:28.879Z,37.60
2017-10-13T09:23:11.840Z,37.60
2017-10-13T09:25:40.579Z,37.20
2017-10-13T09:28:08.621Z,37.20
2017-10-13T09:30:37.695Z,37.40
2017-10-13T09:33:07.036Z,37.30
2017-10-13T09:35:35.646Z,37.30
2017-10-13T09:38:04.387Z,37.30
2017-10-13T09:40:32.372Z,37.40
2017-10-13T09:43:00.523Z,37.20
2017-10-13T09:45:28.876Z,37.20
2017-10-13T09:47:58.412Z,37.10
2017-10-13T09:50:26.837Z,37.10
2017-10-13T09:52:55.575Z,37.10
2017-10-13T09:55:24.108Z,37.10
2017-10-13T09:57:52.104Z,37.00
2017-10-13T10:00:20.288Z,36.90
2017-10-13T10:02:49.692Z,36.90
2017-10-13T10:05:19.116Z,37.00
2017-10-13T10:07:47.908Z,36.90
2017-10-13T10:10:15.939Z,36.80
2017-10-13T10:12:44.092Z,36.90
2017-10-13T10:15:12.307Z,36.90
2017-10-13T10:17:41.099Z,36.80
2017-10-13T10:20:09.891Z,36.80
2017-10-13T10:22:39.411Z,36.70
2017-10-13T10:25:08.168Z,36.70
2017-10-13T10:27:36.263Z,36.60
2017-10-13T10:30:05.132Z,36.50
2017-10-13T10:32:33.149Z,36.50
2017-10-13T10:35:01.876Z,36.40
2017-10-13T10:37:30.079Z,36.30
2017-10-13T10:39:58.459Z,36.40
2017-10-13T10:42:26.500Z,36.50
2017-10-13T10:44:54.658Z,36.40
2017-10-13T10:47:23.225Z,36.50
2017-10-13T10:49:51.764Z,36.40
2017-10-13T10:52:20.293Z,36.30
2017-10-13T10:54:48.807Z,36.40
2017-10-13T10:57:16.825Z,36.30
2017-10-13T10:59:45.791Z,36.30
2017-10-13T11:02:13.808Z,36.30
2017-10-13T11:04:42.515Z,36.10
2017-10-13T11:07:11.531Z,36.20
2017-10-13T11:09:39.635Z,36.20
2017-10-13T11:12:07.620Z,36.10
2017-10-13T11:14:36.532Z,36.10
2017-10-13T11:17:05.070Z,36.10
2017-10-13T11:19:33.678Z,35.90
2017-10-13T11:22:03.304Z,36.00
2017-10-13T11:24:31.871Z,35.90
2017-10-13T11:27:00.680Z,36.00
2017-10-13T11:29:28.891Z,35.90
2017-10-13T11:31:56.881Z,35.90
2017-10-13T11:34:25.405Z,35.90
2017-10-13T11:36:54.052Z,35.90
2017-10-13T11:39:22.756Z,35.90
2017-10-13T11:41:50.819Z,35.80
2017-10-13T11:44:18.957Z,35.80
2017-10-13T11:46:47.123Z,35.70
2017-10-13T11:49:15.911Z,35.70
2017-10-13T11:51:44.238Z,35.60
2017-10-13T11:54:12.791Z,35.60
2017-10-13T11:56:41.575Z,35.60
2017-10-13T11:59:09.836Z,35.60
2017-10-13T12:01:37.927Z,35.50
2017-10-13T12:04:05.987Z,35.50
2017-10-13T12:06:34.194Z,35.50
2017-10-13T12:09:02.584Z,35.40
2017-10-13T12:11:31.172Z,35.30
2017-10-13T12:13:59.348Z,35.30
2017-10-13T12:16:27.419Z,35.30
2017-10-13T12:18:55.439Z,35.30
2017-10-13T12:21:24.075Z,35.30
2017-10-13T12:23:52.823Z,35.30
2017-10-13T12:26:21.528Z,35.30
2017-10-13T12:28:50.460Z,35.20
2017-10-13T12:31:19.255Z,35.10
2017-10-13T12:33:48.085Z,35.10
2017-10-13T12:36:16.955Z,35.10
2017-10-13T12:38:46.256Z,35.10
2017-10-13T12:41:15.347Z,35.00
2017-10-13T12:43:44.780Z,35.00
2017-10-13T12:46:12.835Z,34.90
2017-10-13T12:48:40.926Z,35.00
2017-10-13T12:51:09.044Z,34.90
2017-10-13T12:53:37.516Z,34.80
2017-10-13T12:56:06.143Z,34.70
2017-10-13T12:58:35.101Z,34.60
2017-10-13T13:01:03.159Z,34.60
2017-10-13T13:03:31.227Z,34.60
2017-10-13T13:05:59.915Z,34.50
2017-10-13T13:08:28.558Z,34.50
2017-10-13T13:10:57.751Z,34.40
2017-10-13T13:13:26.716Z,34.40
2017-10-13T13:15:54.824Z,34.40
2017-10-13T13:18:27.289Z,34.40
2017-10-13T13:20:55.567Z,34.30
2017-10-13T13:23:29.708Z,34.20
2017-10-13T13:26:01.988Z,34.20
2017-10-13T13:28:30.179Z,34.20
2017-10-13T13:30:58.203Z,34.20
2017-10-13T13:33:27.124Z,34.20
2017-10-13T13:35:55.200Z,34.10
2017-10-13T13:38:23.251Z,34.00
2017-10-13T13:40:55.435Z,34.00
2017-10-13T13:43:23.712Z,34.00
2017-10-13T13:45:55.726Z,33.90
2017-10-13T13:48:28.677Z,33.80
2017-10-13T13:50:56.916Z,33.80
2017-10-13T13:53:25.984Z,33.60
2017-10-13T13:55:53.992Z,33.60
2017-10-13T13:58:26.507Z,33.40
2017-10-13T14:00:54.811Z,33.50
2017-10-13T14:03:23.051Z,33.50
2017-10-13T14:05:53.171Z,33.50
2017-10-13T14:08:21.666Z,33.50
2017-10-13T14:10:49.927Z,33.50
2017-10-13T14:13:21.897Z,33.40
2017-10-13T14:15:53.225Z,33.40
2017-10-13T14:18:24.014Z,33.30
2017-10-13T14:20:55.146Z,33.40
2017-10-13T14:23:27.691Z,33.30
2017-10-13T14:25:56.699Z,33.30
2017-10-13T14:28:24.740Z,33.30
2017-10-13T14:30:53.674Z,33.30
2017-10-13T14:33:21.754Z,33.20
2017-10-13T14:35:49.720Z,33.30
2017-10-13T14:38:17.852Z,33.20
2017-10-13T14:40:46.704Z,33.10
2017-10-13T14:43:14.707Z,33.20
2017-10-13T14:45:43.595Z,33.20
2017-10-13T14:48:12.448Z,33.20
2017-10-13T14:50:43.570Z,33.20
2017-10-13T14:53:16.000Z,33.10
2017-10-13T14:55:46.217Z,33.10
2017-10-13T14:58:15.396Z,33.00
2017-10-13T15:00:43.620Z,33.00
2017-10-13T15:03:14.332Z,33.00
2017-10-13T15:05:43.311Z,32.90
2017-10-13T15:08:11.345Z,32.90
2017-10-13T15:10:39.464Z,33.00
2017-10-13T15:13:07.624Z,33.00
2017-10-13T15:15:35.720Z,33.00
2017-10-13T15:18:08.160Z,32.90
2017-10-13T15:20:36.350Z,32.80
2017-10-13T15:23:04.429Z,32.80
2017-10-13T15:25:38.244Z,32.80
2017-10-13T15:28:11.836Z,32.80
2017-10-13T15:30:45.802Z,32.70
2017-10-13T15:33:19.550Z,32.80
2017-10-13T15:35:53.427Z,32.80
2017-10-13T15:38:27.147Z,32.70
2017-10-13T15:41:01.765Z,32.70
2017-10-13T15:43:36.691Z,32.70
2017-10-13T15:46:10.696Z,32.70
2017-10-13T15:48:39.575Z,32.70
2017-10-13T15:51:13.288Z,32.70
2017-10-13T15:53:41.924Z,32.70
2017-10-13T15:56:10.120Z,32.60
2017-10-13T15:58:39.700Z,32.70
2017-10-13T16:01:07.740Z,32.70
2017-10-13T16:03:36.355Z,32.70
2017-10-13T16:06:04.496Z,32.60
2017-10-13T16:08:33.083Z,32.60
2017-10-13T16:11:01.769Z,32.50
2017-10-13T16:13:30.310Z,32.50
2017-10-13T16:15:59.127Z,32.50
2017-10-13T16:18:28.431Z,32.50
2017-10-13T16:20:56.608Z,32.50
2017-10-13T16:23:24.659Z,32.50
2017-10-13T16:25:53.503Z,32.50
2017-10-13T16:28:22.224Z,32.40
2017-10-13T16:30:50.957Z,32.40
2017-10-13T16:33:19.381Z,32.40
2017-10-13T16:35:47.504Z,32.40
2017-10-13T16:38:15.520Z,32.40
2017-10-13T16:40:44.104Z,32.40
2017-10-13T16:43:13.072Z,32.40
2017-10-13T16:45:41.636Z,32.30
2017-10-13T16:48:10.215Z,32.30
2017-10-13T16:50:39.268Z,32.30
2017-10-13T16:53:07.503Z,32.30
2017-10-13T16:55:36.016Z,32.30
2017-10-13T16:58:04.824Z,32.30
2017-10-13T17:00:33.523Z,32.30
2017-10-13T17:03:01.563Z,32.30
2017-10-13T17:05:29.716Z,32.20
2017-10-13T17:07:57.708Z,32.20
2017-10-13T17:10:25.782Z,32.20
2017-10-13T17:12:54.108Z,32.10
2017-10-13T17:15:23.527Z,32.10
2017-10-13T17:17:52.127Z,32.10
2017-10-13T17:20:20.256Z,32.10
2017-10-13T17:22:48.384Z,32.10
2017-10-13T17:25:16.496Z,32.00
2017-10-13T17:27:45.384Z,32.10
2017-10-13T17:30:14.183Z,32.10
2017-10-13T17:32:42.932Z,32.10
2017-10-13T17:35:11.607Z,32.00
2017-10-13T17:37:39.835Z,32.00
2017-10-13T17:40:08.004Z,32.00
2017-10-13T17:42:36.219Z,32.00
2017-10-13T17:45:05.012Z,32.00
2017-10-13T17:47:33.738Z,32.00
2017-10-13T17:50:03.292Z,31.90
2017-10-13T17:52:32.048Z,31.90
2017-10-13T17:55:00.112Z,31.90
2017-10-13T17:57:28.247Z,31.90
2017-10-13T17:59:56.982Z,31.90
2017-10-13T18:02:25.555Z,31.80
2017-10-13T18:04:54.364Z,31.80
2017-10-13T18:07:22.416Z,31.80
2017-10-13T18:09:50.526Z,31.80
2017-10-13T18:12:19.832Z,31.70
2017-10-13T18:14:49.116Z,31.70
2017-10-13T18:17:17.720Z,31.70
2017-10-13T18:19:47.240Z,31.60
2017-10-13T18:22:16.075Z,31.60
2017-10-13T18:24:44.071Z,31.60
2017-10-13T18:27:12.184Z,31.60
2017-10-13T18:29:40.943Z,31.60
2017-10-13T18:32:09.364Z,31.60
2017-10-13T18:34:38.104Z,31.50
2017-10-13T18:37:06.118Z,31.50
2017-10-13T18:39:34.120Z,31.50
2017-10-13T18:42:02.254Z,31.50
2017-10-13T18:44:30.905Z,31.40
2017-10-13T18:46:59.575Z,31.40
2017-10-13T18:49:28.544Z,31.40
2017-10-13T18:51:56.569Z,31.40
2017-10-13T18:54:24.552Z,31.40
2017-10-13T18:56:53.467Z,31.20
2017-10-13T18:59:22.142Z,31.20
2017-10-13T19:01:51.023Z,31.20
2017-10-13T19:04:20.336Z,31.20
2017-10-13T19:06:49.080Z,31.20
2017-10-13T19:09:17.191Z,31.20
2017-10-13T19:11:46.060Z,31.10
2017-10-13T19:14:14.573Z,31.10
2017-10-13T19:16:43.723Z,31.00
2017-10-13T19:19:12.361Z,31.00
2017-10-13T19:21:40.915Z,31.00
2017-10-13T19:24:08.959Z,31.10
2017-10-13T19:26:37.188Z,31.10
2017-10-13T19:29:05.955Z,31.20
2017-10-13T19:31:34.428Z,31.20
2017-10-13T19:34:02.527Z,31.20
2017-10-13T19:36:31.951Z,31.20
2017-10-13T19:38:59.956Z,31.20
2017-10-13T19:41:28.084Z,31.20
2017-10-13T19:43:56.886Z,31.10
2017-10-13T19:46:25.524Z,31.10
2017-10-13T19:48:54.403Z,31.10
2017-10-13T19:51:22.599Z,31.10
2017-10-13T19:53:50.703Z,31.00
2017-10-13T19:56:19.600Z,30.90
2017-10-13T19:58:47.626Z,30.90
2017-10-13T20:01:16.375Z,30.90
2017-10-13T20:03:45.528Z,30.80
2017-10-13T20:06:15.061Z,30.80
2017-10-13T20:08:43.824Z,30.80
2017-10-13T20:11:12.059Z,30.70
2017-10-13T20:13:40.179Z,30.80
2017-10-13T20:16:09.608Z,30.70
2017-10-13T20:18:38.499Z,30.70
2017-10-13T20:21:08.368Z,30.70
2017-10-13T20:23:36.546Z,30.70
2017-10-13T20:26:04.856Z,30.70
2017-10-13T20:28:33.656Z,30.60
2017-10-13T20:31:03.184Z,30.60
2017-10-13T20:33:31.872Z,30.50
2017-10-13T20:36:01.312Z,30.50
2017-10-13T20:38:30.087Z,30.50
2017-10-13T20:40:58.224Z,30.50
2017-10-13T20:43:26.195Z,30.50
2017-10-13T20:45:54.323Z,30.50
2017-10-13T20:48:22.947Z,30.50
2017-10-13T20:50:51.703Z,30.40
2017-10-13T20:53:20.136Z,30.50
2017-10-13T20:55:48.316Z,30.40
2017-10-13T20:58:16.372Z,30.50
2017-10-13T21:00:44.448Z,30.50
2017-10-13T21:03:13.144Z,30.50
2017-10-13T21:05:41.968Z,30.50
2017-10-13T21:08:10.657Z,30.50
2017-10-13T21:10:38.852Z,30.50
2017-10-13T21:13:06.911Z,30.50
2017-10-13T21:15:34.987Z,30.50
2017-10-13T21:18:03.947Z,30.50
2017-10-13T21:20:32.749Z,30.40
2017-10-13T21:23:01.235Z,30.30
2017-10-13T21:25:29.418Z,30.40
2017-10-13T21:27:57.410Z,30.30
2017-10-13T21:30:25.384Z,30.30
2017-10-13T21:32:54.215Z,30.30
2017-10-13T21:35:22.840Z,30.30
2017-10-13T21:37:51.606Z,30.30
2017-10-13T21:40:19.737Z,30.30
2017-10-13T21:42:48.531Z,30.30
2017-10-13T21:45:17.286Z,30.30
2017-10-13T21:47:45.393Z,30.30
2017-10-13T21:50:14.661Z,30.20
2017-10-13T21:52:43.292Z,30.20
2017-10-13T21:55:12.095Z,30.20
2017-10-13T21:57:40.091Z,30.20
2017-10-13T22:00:08.267Z,30.20
2017-10-13T22:02:36.471Z,30.10
2017-10-13T22:05:08.309Z,30.10
2017-10-13T22:07:37.735Z,30.10
2017-10-13T22:10:06.404Z,30.10
2017-10-13T22:12:34.396Z,30.20
2017-10-13T22:15:02.628Z,30.10
2017-10-13T22:17:31.072Z,30.10
2017-10-13T22:19:59.942Z,30.10
2017-10-13T22:22:28.779Z,30.00
2017-10-13T22:24:57.405Z,30.10
2017-10-13T22:27:26.179Z,30.00
2017-10-13T22:29:54.341Z,30.00
2017-10-13T22:32:22.520Z,29.90
2017-10-13T22:34:51.036Z,29.90
2017-10-13T22:37:19.727Z,29.90
2017-10-13T22:39:48.373Z,29.90
2017-10-13T22:42:17.111Z,29.90
2017-10-13T22:44:45.244Z,29.90
2017-10-13T22:47:14.439Z,29.90
2017-10-13T22:49:42.996Z,29.90
2017-10-13T22:52:11.732Z,29.90
2017-10-13T22:54:40.510Z,29.90
2017-10-13T22:57:09.016Z,29.80
2017-10-13T22:59:37.139Z,29.80
2017-10-13T23:02:05.108Z,29.90
2017-10-13T23:04:33.620Z,29.80
2017-10-13T23:07:01.832Z,29.80
2017-10-13T23:09:30.004Z,29.90
2017-10-13T23:11:58.767Z,29.80
2017-10-13T23:14:27.070Z,29.80
2017-10-13T23:16:55.125Z,29.80
2017-10-13T23:19:23.116Z,29.70
2017-10-13T23:21:51.783Z,29.70
2017-10-13T23:24:20.300Z,29.70
2017-10-13T23:26:49.616Z,29.60
2017-10-13T23:29:18.960Z,29.60
2017-10-13T23:31:46.964Z,29.60
2017-10-13T23:34:15.311Z,29.60
2017-10-13T23:36:43.495Z,29.50
2017-10-13T23:39:12.035Z,29.50
2017-10-13T23:41:40.716Z,29.50
2017-10-13T23:44:09.596Z,29.50
2017-10-13T23:46:38.395Z,29.40
2017-10-13T23:49:07.180Z,29.40
2017-10-13T23:51:36.764Z,29.40
2017-10-13T23:54:05.432Z,29.40
2017-10-13T23:56:34.295Z,29.40
2017-10-13T23:59:03.296Z,29.40
